Terminal Aerodrome Forecast
Issued by NWS

Home | Current Version | Previous Version | Text Only | Print | Product List | Glossary On
Versions: 1 2 3 4 5 6 7 8 9 10 11 12 13 14 15 16 17 18 19
000
FTUS43 KDLH 282332
TAFBRD
TAF
KBRD 282332Z 2900/2924 36006KT P6SM SCT050
     FM290400 VRB05KT P6SM SKC
     FM291000 31010KT P6SM SCT050
     FM291500 31014KT P6SM VCSH BKN050
     FM291800 31014G20KT P6SM VCTS BKN040CB=

USA.gov is the U.S. government's official web portal to all federal, state and local government web resources and services.